Flybondi B738 at San Carlos de Bariloche on Jun 20th 2024, runway excursion on landing

Last Update: June 20, 2024 / 16:44:50 GMT/Zulu time

Bookmark this article
Incident Facts

Date of incident
Jun 20, 2024

Classification
Incident

Airline
Flybondi

Flight number
FO-5240

Aircraft Registration
LV-KAY

Aircraft Type
Boeing 737-800

ICAO Type Designator
B738

Airport ICAO Code
SAZS

A Flybondi Boeing 737-800, registration LV-KAY performing flight FO-5240 from Buenos Aires Ezeiza,BA to San Carlos de Bariloche,RN (Argentina), landed on Bariloche's runway 29 at about 08:49L (11:49Z) but overran the end of the runway and came to a stop with the nose gear on soft ground and main gear just on paved surface.

Argentina's JST announced a team of investigators has been dispatched on site rating the occurrence a serious incident.

Related NOTAM:
A2372/24 NOTAMN
Q) SAEF/QFAXX/IV/NBO/A/000/999/4109S07109W005
A) SAZS
B) 2407010000 C) 2408302359
E) AD AVBL AS ALTN ONLY FOR ACFT TIL 20 PAX

Metars:
SAZS 201500Z 14006KT 1000 R29/1300 SN SCT003 SCT029 BKN036 M01/M02 Q1006=
SAZS 201400Z 13009KT 1200 R29/P2000 SN SCT003 SCT018 BKN025 M01/M02 Q1006=
SAZS 201327Z 14008KT 1500 R29/P2000 SN SCT003 SCT017 BKN024 M01/M02 Q1006=
SAZS 201300Z 13007KT 1500 R29/P2000 SN SCT003 SCT007 BKN020 M01/M02 Q1006=
SAZS 201200Z 11007KT 1500 R29/P2000 SN BKN003 OVC1400 M01/M01 Q1007=
SAZS 201100Z 11010KT 2000 SN SCT003 BKN010 M01/M01 Q1007=
SAZS 201000Z 09008KT 2300 SN SCT003 BKN010 BKN020 00/M01 Q1007=
SAZS 200900Z 11009KT 2000 SN SCT003 BKN010 BKN030 00/M01 Q1008=
SAZS 200800Z 11009KT 4000 SN SCT003 BKN010 BKN030 00/M01 Q1008=
Incident Facts

Date of incident
Jun 20, 2024

Classification
Incident

Airline
Flybondi

Flight number
FO-5240

Aircraft Registration
LV-KAY

Aircraft Type
Boeing 737-800

ICAO Type Designator
B738

Airport ICAO Code
SAZS

This article is published under license from Avherald.com. © of text by Avherald.com.
Article source

You can read 2 more free articles without a subscription.

Subscribe now and continue reading without any limits!

Are you a subscriber? Login
Subscribe

Read unlimited articles and receive our daily update briefing. Gain better insights into what is happening in commercial aviation safety.

Send tip

Support AeroInside by sending a small tip amount.

Related articles

Newest articles

Subscribe today

Are you researching aviation incidents? Get access to AeroInside Insights, unlimited read access and receive the daily newsletter.

Pick your plan and subscribe

Partner

Blockaviation logo

A new way to document and demonstrate airworthiness compliance and aircraft value. Find out more.

ELITE Logo

ELITE Simulation Solutions is a leading global provider of Flight Simulation Training Devices, IFR training software as well as flight controls and related services. Find out more.

Blue Altitude Logo

Your regulation partner, specialists in aviation safety and compliance; providing training, auditing, and consultancy services. Find out more.

AeroInside Blog
Popular aircraft
Airbus A320
Boeing 737-800
Boeing 737-800 MAX
Popular airlines
American Airlines
United
Delta
Air Canada
Lufthansa
British Airways